Time;durP1;ratioP1;P1;durP2;ratioP2;P2;SDS_P1;SDS_P2;PMS_P1;PMS_P2;Temp;Humidity;BMP_temperature;BMP_pressure;BME280_temperature;BME280_humidity;BME280_pressure;Samples;Min_cycle;Max_cycle;Signal;HPM_P1;HPM_P2
2022/11/14 00:02:25;;;;;;;14.50;8.77;;;;;;;6.18;81.11;100612.69;4885747;29;20479;-91
2022/11/14 00:04:51;;;;;;;17.27;8.45;;;;;;;6.30;81.17;100624.41;4870117;29;20478;-91
2022/11/14 00:07:16;;;;;;;13.70;8.93;;;;;;;6.29;80.42;100625.44;4871892;29;20028;-91
2022/11/14 00:09:42;;;;;;;14.43;8.38;;;;;;;6.30;79.72;100619.06;4886438;29;20039;-91
2022/11/14 00:12:08;;;;;;;11.55;6.60;;;;;;;6.30;79.40;100621.72;4886489;29;20111;-90
2022/11/14 00:14:34;;;;;;;14.57;8.07;;;;;;;6.25;78.68;100613.53;4870723;29;20024;-91
2022/11/14 00:16:59;;;;;;;11.05;7.20;;;;;;;6.34;79.02;100638.19;4869621;29;20030;-90
2022/11/14 00:19:25;;;;;;;12.75;8.50;;;;;;;6.26;78.91;100625.84;4901253;29;20024;-91
2022/11/14 00:21:52;;;;;;;11.70;6.95;;;;;;;6.25;79.28;100622.34;4868504;29;20036;-91
2022/11/14 00:24:17;;;;;;;16.60;8.98;;;;;;;6.24;79.79;100622.56;4870625;29;20107;-90
2022/11/14 00:26:43;;;;;;;16.58;7.75;;;;;;;6.18;79.60;100616.19;4885784;29;20127;-90
2022/11/14 00:29:10;;;;;;;15.85;8.07;;;;;;;6.20;79.71;100624.00;4885250;29;20028;-91
2022/11/14 00:31:36;;;;;;;12.27;8.13;;;;;;;6.18;79.59;100615.38;4870182;29;20504;-91
2022/11/14 00:34:01;;;;;;;12.40;8.07;;;;;;;6.19;79.42;100617.84;4869853;29;20028;-91
2022/11/14 00:36:27;;;;;;;11.52;8.35;;;;;;;6.20;79.28;100615.97;4868633;29;20032;-92
2022/11/14 00:38:53;;;;;;;12.27;6.68;;;;;;;6.14;79.14;100616.81;4885190;29;20145;-91
2022/11/14 00:41:19;;;;;;;12.27;7.55;;;;;;;5.83;80.14;100592.38;4869450;29;20129;-92
2022/11/14 00:43:45;;;;;;;9.43;6.75;;;;;;;5.61;80.88;100585.59;4883791;29;20028;-91
2022/11/14 00:46:11;;;;;;;11.82;6.72;;;;;;;5.56;81.96;100588.88;4868558;29;20107;-91
2022/11/14 00:48:36;;;;;;;12.68;7.70;;;;;;;5.76;80.17;100590.72;4869862;29;20036;-92
2022/11/14 00:51:02;;;;;;;10.98;6.32;;;;;;;5.90;80.21;100594.22;4885447;29;20479;-92
2022/11/14 00:53:30;;;;;;;11.23;6.82;;;;;;;5.92;79.89;100595.66;4883813;29;20434;-91
2022/11/14 00:55:56;;;;;;;8.35;5.60;;;;;;;5.94;80.03;100592.78;4885158;29;20064;-92
2022/11/14 00:58:21;;;;;;;11.40;6.22;;;;;;;5.88;80.61;100587.22;4883187;29;20080;-92
2022/11/14 01:00:47;;;;;;;8.20;5.68;;;;;;;5.92;80.06;100589.47;4869547;29;20103;-92
2022/11/14 01:03:12;;;;;;;8.88;6.13;;;;;;;5.85;79.54;100581.44;4884767;29;20040;-92
2022/11/14 01:05:45;;;;;;;11.23;6.38;;;;;;;5.90;79.12;100595.03;4869081;29;20036;-92
2022/11/14 01:08:11;;;;;;;8.55;5.68;;;;;;;5.91;79.55;100603.88;4866852;29;20036;-92
2022/11/14 01:10:41;;;;;;;9.40;5.90;;;;;;;5.91;80.00;100606.53;4869164;29;20027;-91
2022/11/14 01:13:07;;;;;;;8.77;5.15;;;;;;;5.85;79.65;100595.66;4884679;29;20629;-91
2022/11/14 01:15:33;;;;;;;8.80;5.95;;;;;;;5.82;79.95;100601.41;4869198;29;20036;-91
2022/11/14 01:17:58;;;;;;;9.93;6.47;;;;;;;5.75;80.66;100589.06;4868245;29;20450;-92
2022/11/14 01:20:24;;;;;;;8.75;5.70;;;;;;;5.74;79.81;100582.09;4869427;29;20028;-92
2022/11/14 01:22:49;;;;;;;10.10;6.47;;;;;;;5.54;80.09;100569.56;4866886;29;20040;-91
2022/11/14 01:25:15;;;;;;;10.38;6.00;;;;;;;5.34;81.00;100574.06;4869044;29;20490;-92
2022/11/14 01:27:40;;;;;;;11.07;6.53;;;;;;;5.32;81.33;100582.28;4884246;29;20048;-92
2022/11/14 01:30:06;;;;;;;10.35;6.35;;;;;;;5.19;81.80;100590.28;4869181;29;20032;-92
2022/11/14 01:32:32;;;;;;;10.73;6.53;;;;;;;5.22;81.03;100581.84;4869069;29;20038;-92
2022/11/14 01:34:57;;;;;;;10.98;6.15;;;;;;;5.17;81.04;100581.66;4883937;29;20036;-92
2022/11/14 01:37:23;;;;;;;9.18;5.82;;;;;;;5.33;80.67;100583.91;4868770;29;20455;-92
2022/11/14 01:39:48;;;;;;;10.98;5.97;;;;;;;5.40;79.54;100568.72;4884192;29;20032;-92
2022/11/14 01:42:13;;;;;;;9.20;5.90;;;;;;;5.50;78.96;100576.34;4868833;29;20032;-92
2022/11/14 01:44:51;;;;;;;8.82;5.38;;;;;;;5.51;79.86;100574.50;4868529;29;20024;-92
2022/11/14 01:47:28;;;;;;;10.73;6.50;;;;;;;5.58;79.21;100589.50;4880989;29;20116;-92
2022/11/14 01:49:56;;;;;;;9.95;6.07;;;;;;;5.31;80.63;100569.13;4869086;29;20451;-92
2022/11/14 01:52:26;;;;;;;10.48;6.53;;;;;;;5.19;80.25;100563.59;4884109;29;20028;-92
2022/11/14 01:54:54;;;;;;;11.35;6.40;;;;;;;5.24;80.62;100567.28;4868256;29;20068;-92
2022/11/14 01:57:24;;;;;;;10.15;6.07;;;;;;;4.98;80.78;100557.41;4881678;29;20510;-91
2022/11/14 01:59:51;;;;;;;9.27;6.20;;;;;;;5.10;79.90;100549.59;4898380;29;20055;-93
2022/11/14 02:02:19;;;;;;;12.38;6.38;;;;;;;5.17;79.97;100547.78;4911836;29;20040;-92
2022/11/14 02:05:06;;;;;;;8.90;5.63;;;;;;;5.44;79.37;100582.50;4886129;29;20123;-92
2022/11/14 02:07:32;;;;;;;11.40;7.03;;;;;;;5.30;79.93;100571.00;4901135;29;20028;-91
2022/11/14 02:09:58;;;;;;;11.45;6.40;;;;;;;5.32;79.59;100565.44;4918271;29;20043;-92
2022/11/14 02:12:24;;;;;;;12.02;7.05;;;;;;;5.22;80.42;100566.66;4885551;29;20409;-92
2022/11/14 02:14:51;;;;;;;14.90;7.82;;;;;;;5.21;81.09;100550.88;4886666;29;20036;-91
2022/11/14 02:17:17;;;;;;;17.90;10.80;;;;;;;5.27;80.81;100550.00;4916378;29;20027;-92
2022/11/14 02:20:12;;;;;;;16.90;9.95;;;;;;;5.42;80.85;100566.69;4897898;29;20111;-91
2022/11/14 02:22:39;;;;;;;15.93;8.80;;;;;;;5.24;81.17;100561.13;4902608;29;20043;-91
2022/11/14 02:25:06;;;;;;;16.33;8.95;;;;;;;5.03;81.70;100554.09;4901235;29;20039;-92
2022/11/14 02:27:31;;;;;;;16.25;7.95;;;;;;;4.87;81.97;100547.28;4917901;29;20036;-92
2022/11/14 02:30:08;;;;;;;18.33;9.90;;;;;;;4.93;81.87;100565.16;4886942;29;20501;-92
2022/11/14 02:32:34;;;;;;;21.35;10.65;;;;;;;4.82;82.36;100565.78;4918255;29;20047;-94
2022/11/14 02:34:59;;;;;;;27.23;12.48;;;;;;;4.81;82.84;100556.09;4886438;29;20087;-93
2022/11/14 02:37:24;;;;;;;29.67;14.95;;;;;;;4.79;83.14;100563.47;4902608;29;20031;-93
2022/11/14 02:39:50;;;;;;;32.85;14.13;;;;;;;4.90;82.88;100570.06;4893670;29;20082;-93
2022/11/14 02:42:15;;;;;;;31.85;13.98;;;;;;;4.81;83.42;100561.44;4902437;29;20031;-93
2022/11/14 02:44:41;;;;;;;29.33;15.07;;;;;;;4.70;83.43;100535.34;4902298;29;20090;-93
2022/11/14 02:47:06;;;;;;;28.33;14.95;;;;;;;4.67;83.75;100560.59;4884401;29;20039;-93
2022/11/14 02:49:32;;;;;;;31.23;16.38;;;;;;;4.69;84.01;100561.22;4900382;29;20032;-92
2022/11/14 02:51:57;;;;;;;35.53;15.85;;;;;;;4.69;84.16;100550.56;4902005;29;20047;-92
2022/11/14 02:54:23;;;;;;;32.72;16.58;;;;;;;4.70;84.59;100556.69;4902325;29;20038;-93
2022/11/14 02:56:48;;;;;;;34.47;17.10;;;;;;;4.61;84.43;100551.53;4901724;29;20031;-90
2022/11/14 02:59:13;;;;;;;33.47;15.77;;;;;;;4.62;84.40;100558.50;4890690;29;20048;-92
2022/11/14 03:01:39;;;;;;;26.02;14.95;;;;;;;4.69;84.53;100560.38;4886426;29;20466;-92
2022/11/14 03:04:04;;;;;;;34.33;15.73;;;;;;;4.69;84.25;100563.03;4886907;29;20063;-92
2022/11/14 03:06:30;;;;;;;30.63;14.65;;;;;;;4.68;84.28;100562.22;4886338;29;20487;-92
2022/11/14 03:08:55;;;;;;;25.95;13.90;;;;;;;4.65;84.26;100560.78;4902106;29;20031;-93
2022/11/14 03:11:21;;;;;;;27.95;13.85;;;;;;;4.61;84.23;100556.88;4885539;29;20032;-92
2022/11/14 03:13:46;;;;;;;20.95;11.35;;;;;;;4.67;83.97;100573.94;4885507;29;20035;-92
2022/11/14 03:16:13;;;;;;;22.60;11.90;;;;;;;4.57;84.45;100557.47;4902640;29;20027;-92
2022/11/14 03:18:38;;;;;;;24.65;12.73;;;;;;;4.78;83.62;100573.34;4886721;29;20063;-92
2022/11/14 03:21:11;;;;;;;28.73;14.02;;;;;;;4.80;83.46;100578.50;4901479;29;20474;-93
2022/11/14 03:23:36;;;;;;;32.00;14.23;;;;;;;4.61;83.53;100556.88;4902130;29;20028;-92
2022/11/14 03:26:04;;;;;;;24.25;12.88;;;;;;;4.64;83.97;100563.66;4887064;29;20056;-92
2022/11/14 03:28:29;;;;;;;21.48;12.82;;;;;;;4.51;84.31;100547.59;4886190;29;20082;-92
2022/11/14 03:30:55;;;;;;;22.65;12.23;;;;;;;4.50;84.72;100549.44;4901554;29;20031;-92
2022/11/14 03:33:20;;;;;;;24.80;13.27;;;;;;;4.65;84.23;100558.13;4887100;29;20032;-93
2022/11/14 03:35:47;;;;;;;44.15;18.65;;;;;;;4.89;82.60;100563.94;4902626;29;20119;-93
2022/11/14 03:38:13;;;;;;;40.53;20.50;;;;;;;5.09;82.10;100576.50;4886768;29;20103;-93
2022/11/14 03:40:39;;;;;;;50.85;22.33;;;;;;;5.01;81.38;100561.50;4889107;29;20471;-93
2022/11/14 03:43:04;;;;;;;50.42;22.80;;;;;;;5.03;80.78;100554.94;4904630;29;20471;-91
2022/11/14 03:45:30;;;;;;;31.35;16.27;;;;;;;4.86;81.71;100565.16;4889989;29;20024;-91
2022/11/14 03:47:55;;;;;;;36.80;17.33;;;;;;;4.90;80.82;100559.41;4889440;29;20046;-93
2022/11/14 03:50:21;;;;;;;31.00;13.10;;;;;;;4.92;80.35;100552.03;4905208;29;20031;-91
2022/11/14 03:52:49;;;;;;;31.63;14.57;;;;;;;4.64;81.67;100540.47;4903167;29;20039;-91
2022/11/14 03:55:15;;;;;;;33.85;16.73;;;;;;;4.57;82.01;100552.16;4889312;29;20039;-91
2022/11/14 03:57:40;;;;;;;34.10;16.85;;;;;;;4.55;82.15;100552.34;4877765;29;20048;-92
2022/11/14 04:00:06;;;;;;;33.40;16.77;;;;;;;4.59;81.22;100539.44;4885950;29;20494;-93
2022/11/14 04:02:32;;;;;;;24.52;13.50;;;;;;;4.74;81.54;100566.75;4870244;29;20127;-93
2022/11/14 04:04:57;;;;;;;28.67;12.73;;;;;;;4.74;81.66;100560.63;4876122;29;20028;-92
2022/11/14 04:07:23;;;;;;;28.38;12.85;;;;;;;4.68;82.01;100550.75;4913980;29;20035;-91
2022/11/14 04:09:49;;;;;;;18.95;10.75;;;;;;;4.63;81.27;100552.16;4884268;29;20401;-92
2022/11/14 04:12:14;;;;;;;24.85;11.32;;;;;;;4.57;81.58;100552.97;4887272;29;20032;-91
2022/11/14 04:14:40;;;;;;;19.70;9.38;;;;;;;4.51;82.07;100550.28;4892395;29;20036;-92
2022/11/14 04:17:05;;;;;;;13.70;7.00;;;;;;;4.36;80.75;100537.09;4874106;29;20539;-91
2022/11/14 04:19:31;;;;;;;9.57;6.93;;;;;;;4.21;81.47;100548.72;4870512;29;20091;-91
2022/11/14 04:21:56;;;;;;;12.00;5.90;;;;;;;4.18;81.42;100565.09;4873831;29;20032;-94
2022/11/14 04:24:22;;;;;;;9.88;6.13;;;;;;;4.05;81.34;100559.69;4893758;29;20121;-91
2022/11/14 04:26:50;;;;;;;10.48;5.82;;;;;;;3.93;81.66;100550.59;4912711;29;20035;-93
2022/11/14 04:29:16;;;;;;;11.40;5.75;;;;;;;3.88;82.64;100563.66;4897357;29;20035;-91
2022/11/14 04:31:44;;;;;;;13.68;5.93;;;;;;;3.95;82.04;100567.22;4904985;29;20132;-91
2022/11/14 04:34:10;;;;;;;9.30;5.82;;;;;;;3.75;82.66;100551.91;4889896;29;20498;-91
2022/11/14 04:36:35;;;;;;;16.27;6.80;;;;;;;3.80;83.56;100568.16;4889165;29;20028;-91
2022/11/14 04:39:01;;;;;;;10.43;6.28;;;;;;;3.83;83.50;100582.91;4905015;29;20035;-91
2022/11/14 04:41:26;;;;;;;10.85;6.78;;;;;;;3.74;83.98;100574.25;4905043;29;20031;-91
2022/11/14 04:43:51;;;;;;;12.35;7.30;;;;;;;3.77;84.28;100571.19;4904978;29;20055;-94
2022/11/14 04:46:17;;;;;;;15.38;8.05;;;;;;;3.67;83.99;100565.38;4890331;29;20047;-93
2022/11/14 04:48:43;;;;;;;15.30;7.07;;;;;;;3.80;83.51;100568.16;4905407;29;20031;-94
2022/11/14 04:51:10;;;;;;;11.88;7.00;;;;;;;4.00;83.02;100578.91;4889778;29;20031;-94
2022/11/14 04:53:35;;;;;;;13.05;8.15;;;;;;;3.92;83.00;100564.94;4888772;29;20039;-93
2022/11/14 04:56:01;;;;;;;15.15;6.75;;;;;;;3.80;83.73;100551.34;5124777;23;20055;-92
2022/11/14 04:58:26;;;;;;;11.75;6.72;;;;;;;3.78;83.35;100569.38;4906221;29;20040;-92
2022/11/14 05:00:52;;;;;;;15.00;9.55;;;;;;;3.97;84.00;100589.97;4885466;29;20038;-93
2022/11/14 05:03:17;;;;;;;13.55;7.65;;;;;;;3.70;83.68;100558.84;4887414;29;20065;-92
2022/11/14 05:05:43;;;;;;;15.98;7.50;;;;;;;3.68;83.63;100559.03;4885299;29;20028;-91
2022/11/14 05:08:08;;;;;;;12.32;7.22;;;;;;;3.80;83.66;100562.81;4883272;29;20518;-92
2022/11/14 05:10:33;;;;;;;13.63;7.97;;;;;;;3.71;83.26;100552.50;4888302;29;20035;-93
2022/11/14 05:12:59;;;;;;;12.35;6.95;;;;;;;3.85;82.97;100559.56;4891433;29;20039;-92
2022/11/14 05:15:25;;;;;;;15.38;6.13;;;;;;;3.80;83.48;100560.16;4901070;29;20032;-96
2022/11/14 05:17:52;;;;;;;12.43;6.75;;;;;;;3.91;82.26;100573.94;4889663;29;20032;-95
2022/11/14 05:20:18;;;;;;;12.63;6.82;;;;;;;3.95;82.09;100586.69;4884006;29;20039;-90
2022/11/14 05:22:43;;;;;;;9.18;6.00;;;;;;;3.75;81.86;100570.56;4884539;29;20197;-90
2022/11/14 05:25:09;;;;;;;9.68;5.95;;;;;;;3.62;83.47;100584.59;4900661;29;20031;-91
2022/11/14 05:27:34;;;;;;;10.50;6.93;;;;;;;3.65;82.40;100567.41;4887837;29;20577;-91
2022/11/14 05:30:00;;;;;;;9.80;6.30;;;;;;;3.78;82.91;100596.81;4886971;29;20404;-92
2022/11/14 05:32:25;;;;;;;11.95;6.38;;;;;;;3.63;83.02;100578.28;4905122;29;20130;-93
2022/11/14 05:34:51;;;;;;;12.55;6.50;;;;;;;3.62;83.55;100571.28;4895679;29;20024;-91
2022/11/14 05:37:17;;;;;;;13.20;7.00;;;;;;;3.82;83.22;100600.75;4904597;29;20031;-92
2022/11/14 05:39:42;;;;;;;18.08;10.57;;;;;;;3.81;83.10;100579.63;4902972;29;20020;-94
2022/11/14 05:42:08;;;;;;;10.07;6.95;;;;;;;3.75;82.21;100559.91;4890719;29;20509;-92
2022/11/14 05:44:33;;;;;;;12.65;6.82;;;;;;;3.85;82.06;100568.38;4906803;29;20032;-92
2022/11/14 05:46:59;;;;;;;12.93;6.85;;;;;;;3.93;81.67;100569.25;4889461;29;20414;-93
2022/11/14 05:49:24;;;;;;;15.45;7.43;;;;;;;4.07;82.14;100597.63;4889741;29;20047;-94
2022/11/14 05:51:50;;;;;;;9.75;6.28;;;;;;;4.02;81.81;100592.06;4908566;29;20457;-91
2022/11/14 05:54:15;;;;;;;14.18;7.72;;;;;;;4.11;81.73;100590.03;4910071;29;20122;-89
2022/11/14 05:56:41;;;;;;;12.85;8.07;;;;;;;4.07;81.60;100592.31;4907282;29;20051;-90
2022/11/14 05:59:06;;;;;;;11.40;6.85;;;;;;;4.01;81.53;100580.56;4904473;29;20031;-91
2022/11/14 06:01:35;;;;;;;15.88;7.75;;;;;;;4.04;81.04;100588.16;4888037;29;20122;-95
2022/11/14 06:04:00;;;;;;;13.25;7.70;;;;;;;4.23;81.95;100589.34;4885238;29;20138;-92
2022/11/14 06:06:26;;;;;;;11.20;6.53;;;;;;;4.21;81.16;100583.38;4885359;29;20442;-91
2022/11/14 06:08:52;;;;;;;13.80;7.18;;;;;;;4.11;81.62;100587.38;4887776;29;20483;-91
2022/11/14 06:11:18;;;;;;;12.48;7.75;;;;;;;4.04;81.36;100584.69;4871277;29;20047;-90
2022/11/14 06:13:44;;;;;;;14.82;8.52;;;;;;;4.25;81.43;100587.28;4868589;29;20039;-93
2022/11/14 06:16:14;;;;;;;17.98;8.05;;;;;;;4.37;80.84;100602.72;4870588;29;20024;-91
2022/11/14 06:18:40;;;;;;;11.13;7.22;;;;;;;4.33;81.39;100601.47;4869948;29;20028;-92
2022/11/14 06:21:18;;;;;;;17.80;9.23;;;;;;;4.30;81.42;100607.22;4868445;29;20035;-94
2022/11/14 06:23:43;;;;;;;19.08;9.52;;;;;;;4.18;81.78;100594.41;4868484;29;20054;-90
2022/11/14 06:26:24;;;;;;;16.52;8.75;;;;;;;4.25;81.63;100605.09;4867462;29;20025;-92
2022/11/14 06:28:50;;;;;;;18.38;9.82;;;;;;;4.28;81.49;100601.25;4870377;29;20044;-91
2022/11/14 06:31:16;;;;;;;18.02;10.07;;;;;;;4.21;81.62;100586.03;4870743;29;20027;-92
2022/11/14 06:33:41;;;;;;;19.92;9.75;;;;;;;4.22;82.56;100608.19;4881283;29;20572;-92
2022/11/14 06:36:07;;;;;;;33.47;14.07;;;;;;;4.30;82.81;100605.34;4866141;29;20483;-94
2022/11/14 06:38:37;;;;;;;26.45;15.85;;;;;;;4.32;83.26;100629.97;4871811;29;20036;-91
2022/11/14 06:41:17;;;;;;;28.70;14.48;;;;;;;4.22;83.12;100602.84;4871947;29;20044;-93
2022/11/14 06:43:44;;;;;;;24.15;12.77;;;;;;;4.24;82.74;100600.81;4896336;29;20046;-95
2022/11/14 06:46:15;;;;;;;23.90;11.80;;;;;;;4.43;82.67;100597.41;4875783;29;20119;-96
2022/11/14 06:48:41;;;;;;;23.80;13.52;;;;;;;4.58;82.40;100613.28;4870426;29;20131;-95
2022/11/14 06:51:07;;;;;;;21.48;12.93;;;;;;;4.73;82.35;100628.31;4872744;29;20039;-95
2022/11/14 06:53:34;;;;;;;24.65;13.45;;;;;;;4.54;82.77;100590.69;4870901;29;20029;-95
2022/11/14 06:56:19;;;;;;;23.73;12.38;;;;;;;4.66;82.15;100588.28;4864572;29;20064;-95
2022/11/14 06:58:48;;;;;;;20.83;11.15;;;;;;;4.49;81.59;100589.66;4885295;29;20119;-95
2022/11/14 07:01:16;;;;;;;15.88;10.48;;;;;;;4.68;81.39;100606.75;4907163;29;20067;-96
2022/11/14 07:03:42;;;;;;;18.48;10.90;;;;;;;4.72;80.48;100589.34;4894169;29;20031;-96
2022/11/14 07:06:09;;;;;;;21.38;11.73;;;;;;;4.72;81.33;100600.00;4889888;29;20467;-95
2022/11/14 07:08:34;;;;;;;20.17;12.48;;;;;;;4.71;80.50;100590.34;4899391;29;20065;-95
2022/11/14 07:11:14;;;;;;;23.90;12.55;;;;;;;4.78;80.93;100586.69;4909678;29;20039;-96
2022/11/14 07:13:47;;;;;;;17.92;10.93;;;;;;;4.89;80.43;100577.28;4913291;29;20032;-95
2022/11/14 07:16:13;;;;;;;22.00;12.15;;;;;;;4.96;79.77;100583.47;4899420;29;20047;-93
2022/11/14 07:18:41;;;;;;;26.20;12.45;;;;;;;5.22;79.90;100611.22;4893316;29;20035;-95
2022/11/14 07:21:06;;;;;;;23.45;10.98;;;;;;;5.43;79.33;100603.03;4897108;29;20051;-93
2022/11/14 07:23:35;;;;;;;21.75;11.65;;;;;;;5.41;79.09;100589.06;4895020;29;20034;-94
2022/11/14 07:26:01;;;;;;;35.05;16.20;;;;;;;5.48;78.87;100591.75;4895423;29;20034;-96
2022/11/14 07:31:16;;;;;;;31.88;16.17;;;;;;;5.39;79.16;100603.66;4892944;29;20171;-93
2022/11/14 07:33:44;;;;;;;24.10;12.93;;;;;;;5.49;78.06;100600.59;4885315;29;20517;-93
2022/11/14 07:36:11;;;;;;;21.95;12.18;;;;;;;5.46;78.40;100580.47;4891913;29;20069;-94
2022/11/14 07:38:36;;;;;;;22.75;12.85;;;;;;;5.65;78.15;100605.53;4895175;29;20039;-94
2022/11/14 07:41:04;;;;;;;20.25;11.38;;;;;;;5.78;78.19;100581.47;4907496;29;20036;-93
2022/11/14 07:43:29;;;;;;;20.55;12.68;;;;;;;5.88;77.54;100581.06;4894375;29;20571;-95
2022/11/14 07:45:59;;;;;;;32.15;13.38;;;;;;;5.75;77.77;100575.69;4929097;29;20023;-96
2022/11/14 07:48:31;;;;;;;26.88;12.85;;;;;;;5.85;77.52;100584.13;4897358;29;20035;-96
2022/11/14 07:51:01;;;;;;;35.05;18.73;;;;;;;6.06;76.82;100597.31;4873679;29;20127;-96
2022/11/14 07:53:29;;;;;;;26.42;12.25;;;;;;;6.07;76.26;100585.56;4840800;29;20060;-96
2022/11/14 07:56:08;;;;;;;22.55;12.52;;;;;;;6.25;75.84;100586.78;4841960;29;20084;-95
2022/11/14 07:58:34;;;;;;;21.38;12.55;;;;;;;6.33;76.27;100594.56;4842796;29;20097;-94
2022/11/14 08:01:01;;;;;;;100.35;45.65;;;;;;;6.44;75.85;100598.44;4860331;29;20029;-93
2022/11/14 08:03:26;;;;;;;43.97;21.92;;;;;;;6.63;75.45;100608.25;4838146;29;20101;-95
2022/11/14 08:06:06;;;;;;;25.42;14.00;;;;;;;6.61;75.54;100598.78;4839020;29;20048;-96
2022/11/14 08:08:36;;;;;;;29.40;14.60;;;;;;;6.80;75.02;100591.72;4858397;29;20506;-94
2022/11/14 08:11:01;;;;;;;29.67;13.60;;;;;;;6.80;74.77;100586.34;4857379;29;20044;-93
2022/11/14 08:13:32;;;;;;;23.95;12.80;;;;;;;7.04;74.89;100603.53;4847263;29;20043;-96
2022/11/14 08:16:22;;;;;;;25.33;13.55;;;;;;;7.06;74.13;100575.50;4859402;29;20041;-96
2022/11/14 08:18:48;;;;;;;23.70;12.88;;;;;;;7.08;74.20;100583.31;4874033;29;20049;-96
2022/11/14 08:21:14;;;;;;;29.35;16.30;;;;;;;7.02;74.37;100568.13;4881218;29;20411;-93
2022/11/14 08:23:40;;;;;;;24.35;13.23;;;;;;;7.14;74.06;100578.94;4925400;29;20039;-93
2022/11/14 08:26:06;;;;;;;27.02;13.02;;;;;;;7.25;73.95;100581.75;4906664;29;20035;-92
2022/11/14 08:28:31;;;;;;;29.17;14.35;;;;;;;7.32;74.03;100592.44;4884167;29;20056;-94
2022/11/14 08:31:01;;;;;;;27.08;14.32;;;;;;;7.23;73.80;100558.91;4893533;29;20102;-91
2022/11/14 08:33:26;;;;;;;23.80;13.82;;;;;;;7.59;73.44;100590.38;4884548;29;20038;-95
2022/11/14 08:35:52;;;;;;;23.83;12.73;;;;;;;7.48;72.80;100564.28;4890374;29;20032;-94
2022/11/14 08:38:20;;;;;;;42.72;14.82;;;;;;;7.67;72.92;100557.13;4892333;29;20054;-91
2022/11/14 08:40:52;;;;;;;26.67;14.07;;;;;;;7.60;73.17;100562.53;4904572;29;20036;-92
2022/11/14 08:43:17;;;;;;;;;;;;;;;7.84;73.44;100597.59;4872361;29;20407;-90
2022/11/14 08:45:44;;;;;;;22.65;13.43;;;;;;;7.86;73.02;100574.91;4886916;29;19943;-92
2022/11/14 08:48:10;;;;;;;23.85;13.80;;;;;;;7.82;73.23;100559.44;4875436;29;20110;-93
2022/11/14 08:50:35;;;;;;;26.48;14.93;;;;;;;7.93;73.45;100573.97;4901135;29;20059;-93
2022/11/14 08:53:01;;;;;;;29.35;13.85;;;;;;;8.06;73.02;100563.13;4897924;29;20035;-94
2022/11/14 08:55:27;;;;;;;25.15;13.68;;;;;;;8.26;72.45;100547.66;4891257;29;20485;-90
2022/11/14 08:57:52;;;;;;;24.20;13.55;;;;;;;8.25;72.77;100555.91;4895285;29;20528;-90
2022/11/14 09:00:21;;;;;;;27.35;13.50;;;;;;;8.46;71.40;100555.47;4907163;29;20028;-93
2022/11/14 09:02:47;;;;;;;33.03;16.75;;;;;;;8.61;71.70;100559.63;4899345;29;20066;-91
2022/11/14 09:05:12;;;;;;;21.67;13.38;;;;;;;8.58;71.61;100552.06;4889234;29;20063;-95
2022/11/14 09:07:38;;;;;;;19.35;12.50;;;;;;;8.88;70.24;100546.66;4893071;29;20039;-93
2022/11/14 09:10:06;;;;;;;31.30;19.20;;;;;;;8.59;71.92;100533.03;4904501;29;20032;-93
2022/11/14 09:12:32;;;;;;;29.95;14.45;;;;;;;8.97;70.90;100564.13;4899131;29;20047;-93
2022/11/14 09:14:57;;;;;;;25.50;13.45;;;;;;;9.08;71.20;100546.41;4891034;29;20027;-91
2022/11/14 09:17:23;;;;;;;21.48;13.10;;;;;;;9.17;71.32;100539.66;4903474;29;20068;-91
2022/11/14 09:19:49;;;;;;;26.17;12.60;;;;;;;9.24;70.63;100529.63;4890522;29;20106;-91
2022/11/14 09:22:14;;;;;;;20.58;11.80;;;;;;;9.38;70.55;100535.59;4891834;29;20038;-94
2022/11/14 09:24:48;;;;;;;26.10;12.75;;;;;;;9.47;70.84;100533.38;4895098;29;20039;-95
2022/11/14 09:27:14;;;;;;;22.15;11.27;;;;;;;9.18;72.11;100529.72;4886700;29;20028;-90
2022/11/14 09:29:39;;;;;;;22.15;11.32;;;;;;;9.56;70.75;100517.72;4869770;29;20561;-90
2022/11/14 09:32:05;;;;;;;19.92;11.45;;;;;;;9.72;70.70;100522.41;4869790;29;20032;-91
2022/11/14 09:34:32;;;;;;;18.77;11.00;;;;;;;9.82;69.85;100500.31;4885917;29;20097;-94
2022/11/14 09:36:57;;;;;;;23.45;11.95;;;;;;;10.01;69.22;100496.41;4871638;29;20083;-91
2022/11/14 09:39:23;;;;;;;22.02;11.73;;;;;;;10.20;69.73;100509.72;4885602;29;20659;-94
2022/11/14 09:41:51;;;;;;;18.40;11.80;;;;;;;10.24;69.89;100521.63;4870434;29;20055;-93
2022/11/14 09:44:48;;;;;;;23.70;11.48;;;;;;;10.10;70.31;100492.28;4917857;29;20019;-93
2022/11/14 09:47:20;;;;;;;18.65;11.25;;;;;;;10.10;70.68;100500.34;4903405;29;20054;-92
2022/11/14 09:49:46;;;;;;;15.85;10.10;;;;;;;9.94;71.20;100486.81;4870111;29;20562;-92
2022/11/14 09:52:34;;;;;;;18.42;10.23;;;;;;;9.99;71.06;100484.25;4875172;29;20059;-91
2022/11/14 09:55:34;;;;;;;17.58;10.85;;;;;;;10.15;71.57;100499.66;4933542;29;20031;-92
2022/11/14 09:58:03;;;;;;;15.18;9.35;;;;;;;10.26;70.96;100482.66;4857709;29;20539;-92
2022/11/14 10:00:51;;;;;;;16.10;9.20;;;;;;;10.30;71.17;100473.06;4889018;29;20035;-92
2022/11/14 10:03:34;;;;;;;16.85;8.93;;;;;;;10.37;71.28;100483.69;4923764;29;20023;-92
2022/11/14 10:06:39;;;;;;;17.40;9.52;;;;;;;10.44;71.00;100484.41;4919061;29;20040;-92
2022/11/14 10:09:45;;;;;;;16.60;9.90;;;;;;;10.57;70.36;100495.94;4918631;29;20135;-92
2022/11/14 10:12:15;;;;;;;20.80;13.20;;;;;;;10.42;70.52;100458.78;4915821;29;20411;-92
2022/11/14 10:15:05;;;;;;;19.23;11.20;;;;;;;10.61;70.73;100486.31;4889397;29;20047;-92
2022/11/14 10:17:42;;;;;;;19.10;9.10;;;;;;;10.72;70.10;100486.25;4903965;29;20031;-94
2022/11/14 10:20:19;;;;;;;16.33;9.43;;;;;;;10.69;69.85;100470.56;4920617;29;20106;-94
2022/11/14 10:23:06;;;;;;;20.45;11.82;;;;;;;10.80;70.10;100489.63;4893614;29;20031;-94
2022/11/14 10:26:09;;;;;;;17.67;10.07;;;;;;;10.73;69.79;100479.00;4904599;29;20051;-92
2022/11/14 10:28:57;;;;;;;21.30;9.35;;;;;;;10.61;70.25;100460.19;4920966;29;20027;-92
2022/11/14 10:31:29;;;;;;;14.50;8.65;;;;;;;10.63;70.78;100470.72;4901830;29;20032;-96
2022/11/14 10:34:43;;;;;;;18.50;11.45;;;;;;;10.59;71.02;100469.59;4901966;29;20028;-95
2022/11/14 10:37:15;;;;;;;17.77;9.32;;;;;;;10.72;70.42;100474.66;4834729;29;20065;-91
2022/11/14 10:40:22;;;;;;;17.52;10.38;;;;;;;10.49;70.41;100437.88;4892735;29;20016;-96
2022/11/14 10:42:50;;;;;;;19.92;10.65;;;;;;;10.67;70.04;100464.63;4910248;29;20064;-95
2022/11/14 10:45:19;;;;;;;16.10;10.10;;;;;;;10.65;70.65;100472.13;4871984;29;20047;-93
2022/11/14 10:48:11;;;;;;;15.35;9.23;;;;;;;10.61;70.64;100443.22;4903734;29;20032;-93
2022/11/14 10:50:45;;;;;;;17.02;9.85;;;;;;;10.63;71.08;100460.78;4868868;29;20041;-92
2022/11/14 10:53:23;;;;;;;21.13;10.82;;;;;;;10.58;70.99;100457.97;4857883;29;20037;-92
2022/11/14 10:55:50;;;;;;;16.17;10.05;;;;;;;10.49;71.03;100446.78;4851434;29;20048;-90
2022/11/14 10:58:15;;;;;;;15.63;9.90;;;;;;;10.48;71.08;100441.66;4848754;29;20044;-93
2022/11/14 11:00:41;;;;;;;20.27;11.35;;;;;;;10.01;72.46;100428.34;4845726;29;20060;-91
2022/11/14 11:03:07;;;;;;;18.35;11.07;;;;;;;10.11;72.69;100440.09;4852922;29;20037;-91
2022/11/14 11:05:32;;;;;;;22.75;12.10;;;;;;;10.27;72.11;100418.88;4853396;29;20024;-92
2022/11/14 11:13:33;;;;;;;22.67;14.30;;;;;;;10.39;71.35;100419.66;4875755;29;20084;-92
2022/11/14 11:16:00;;;;;;;26.63;12.82;;;;;;;10.54;71.14;100421.00;4885728;29;20415;-93
2022/11/14 11:18:28;;;;;;;20.88;12.65;;;;;;;10.46;71.64;100412.28;4882692;29;20051;-93
2022/11/14 11:21:04;;;;;;;20.73;12.43;;;;;;;10.55;71.86;100433.41;4908516;29;20117;-93
2022/11/14 11:23:32;;;;;;;26.10;16.05;;;;;;;10.50;71.21;100415.31;4902939;29;20028;-92
2022/11/14 11:26:07;;;;;;;21.67;13.50;;;;;;;10.72;71.02;100421.59;4893983;29;20024;-94
2022/11/14 11:28:34;;;;;;;17.80;10.18;;;;;;;10.74;70.81;100418.66;4894153;29;20023;-94
2022/11/14 11:31:07;;;;;;;14.85;9.25;;;;;;;10.80;70.15;100412.31;4896818;29;20059;-94
2022/11/14 11:33:34;;;;;;;17.60;10.02;;;;;;;10.71;70.71;100414.59;4887896;29;20028;-94
2022/11/14 11:36:15;;;;;;;19.67;10.25;;;;;;;10.57;71.28;100396.28;4903402;29;20547;-95
2022/11/14 11:38:41;;;;;;;17.88;10.93;;;;;;;10.76;71.00;100405.75;4907478;29;20043;-93